Pagrindinis puslapis
METAR-TAF:

METAR-TAF

Oro uostai :

Joensū, Suomija

platuma: 62-40N, ilguma: 029-38E, Aukštis: 119 m

Dabartinis oras

Ataskaita buvo paskelbta 17 minutes, ne 20:20 UTC
Vėjas 5 kt iš Šiaurės Rytų, svyruoja nuo Šiaurės ir Rytų/Šiaurės Rytų
Temperatūra 6°C
Drėgmė 87%
Slėgis 998 hPa
Matomumas 10 km arba daugiau
Mažai debesys ne aukštis 4100 ft

METAR: EFJO 172020Z 04005KT 360V070 9999 FEW041 06/04 Q0998

Laikas: 23:37 (20:37 UTC)

Prognozė

Ataskaita buvo paskelbta 3 valandos ir 12 minutes, ne 17:25 UTC
Prognozė galioja nuo 17 metu 18 UTC su 17 metu 24 UTC
Vėjas 8 kt iš Šiaurės/Šiaurės Rytų
Matomumas 10 km arba daugiau
Su prošvaistėmis ne aukštis 2500 ft

TAF: EFJO 171725Z 1718/1724 02008KT 9999 BKN025

Orai ataskaitas ir orų prognozės (METAR, TAF).

turimą stotys yra geltonos ir raudonos taškus žemėlapyje.

Perkelti pele per norėdami pamatyti stoties vardą.

Tada spustelėkite, norėdami matyti oro stebėjimo ir prognozės.

Norėdami pakeisti žemėlapį: spustelėkite ant žalios mygtukų su juodo kryžiaus žemyn,; žalią mygtuką su brūkšneliu, jei norite nutolinti; arba žalių rodyklių gretimoms žemėlapius.


METAR-TAF: